sensor_id;sensor_type;location;lat;lon;timestamp;P1;durP1;ratioP1;P2;durP2;ratioP2
23590;SDS011;11973;52.098;7.582;2023-02-15T04:47:40;35.05;;;26.17;;
23590;SDS011;11973;52.098;7.582;2023-02-15T04:50:06;33.30;;;25.83;;
23590;SDS011;11973;52.098;7.582;2023-02-15T04:52:32;36.33;;;26.40;;
23590;SDS011;11973;52.098;7.582;2023-02-15T04:54:58;35.40;;;26.67;;
23590;SDS011;11973;52.098;7.582;2023-02-15T04:57:25;36.75;;;26.42;;
23590;SDS011;11973;52.098;7.582;2023-02-15T04:59:50;36.85;;;27.02;;
23590;SDS011;11973;52.098;7.582;2023-02-15T05:02:16;35.08;;;26.38;;
23590;SDS011;11973;52.098;7.582;2023-02-15T05:04:42;33.95;;;26.25;;
23590;SDS011;11973;52.098;7.582;2023-02-15T05:07:07;34.15;;;26.17;;
23590;SDS011;11973;52.098;7.582;2023-02-15T05:09:33;33.00;;;25.58;;
23590;SDS011;11973;52.098;7.582;2023-02-15T05:11:59;33.90;;;26.45;;
23590;SDS011;11973;52.098;7.582;2023-02-15T05:14:24;34.65;;;26.45;;
23590;SDS011;11973;52.098;7.582;2023-02-15T05:16:50;35.13;;;26.65;;
23590;SDS011;11973;52.098;7.582;2023-02-15T05:19:16;32.38;;;25.85;;
23590;SDS011;11973;52.098;7.582;2023-02-15T05:21:42;35.60;;;26.30;;
23590;SDS011;11973;52.098;7.582;2023-02-15T05:24:07;35.08;;;26.15;;
23590;SDS011;11973;52.098;7.582;2023-02-15T05:26:51;36.78;;;26.88;;
23590;SDS011;11973;52.098;7.582;2023-02-15T05:29:36;35.45;;;26.73;;
23590;SDS011;11973;52.098;7.582;2023-02-15T05:32:01;33.80;;;26.70;;
23590;SDS011;11973;52.098;7.582;2023-02-15T05:34:29;33.60;;;26.05;;
23590;SDS011;11973;52.098;7.582;2023-02-15T05:36:55;38.42;;;28.83;;
23590;SDS011;11973;52.098;7.582;2023-02-15T05:39:20;36.72;;;27.75;;
23590;SDS011;11973;52.098;7.582;2023-02-15T05:41:46;41.07;;;29.53;;
23590;SDS011;11973;52.098;7.582;2023-02-15T05:44:11;41.50;;;29.65;;
23590;SDS011;11973;52.098;7.582;2023-02-15T05:46:37;38.22;;;28.17;;
23590;SDS011;11973;52.098;7.582;2023-02-15T05:49:03;39.38;;;28.77;;
23590;SDS011;11973;52.098;7.582;2023-02-15T05:51:28;39.42;;;28.88;;
23590;SDS011;11973;52.098;7.582;2023-02-15T05:53:54;43.65;;;28.92;;
23590;SDS011;11973;52.098;7.582;2023-02-15T05:56:20;40.70;;;28.48;;
23590;SDS011;11973;52.098;7.582;2023-02-15T05:58:45;39.58;;;28.90;;
23590;SDS011;11973;52.098;7.582;2023-02-15T06:01:13;34.78;;;27.75;;
23590;SDS011;11973;52.098;7.582;2023-02-15T06:03:40;40.72;;;29.00;;
23590;SDS011;11973;52.098;7.582;2023-02-15T06:06:06;37.95;;;27.98;;
23590;SDS011;11973;52.098;7.582;2023-02-15T06:08:33;36.90;;;28.08;;
23590;SDS011;11973;52.098;7.582;2023-02-15T06:11:01;38.30;;;28.10;;
23590;SDS011;11973;52.098;7.582;2023-02-15T06:13:27;41.72;;;29.45;;
23590;SDS011;11973;52.098;7.582;2023-02-15T06:15:53;41.05;;;29.63;;
23590;SDS011;11973;52.098;7.582;2023-02-15T06:18:18;41.17;;;29.42;;
23590;SDS011;11973;52.098;7.582;2023-02-15T06:20:47;40.67;;;29.98;;
23590;SDS011;11973;52.098;7.582;2023-02-15T06:23:13;42.20;;;29.38;;
23590;SDS011;11973;52.098;7.582;2023-02-15T06:25:39;37.67;;;27.25;;
23590;SDS011;11973;52.098;7.582;2023-02-15T06:28:05;37.72;;;28.38;;
23590;SDS011;11973;52.098;7.582;2023-02-15T06:30:31;37.53;;;28.23;;
23590;SDS011;11973;52.098;7.582;2023-02-15T06:32:57;36.40;;;27.88;;
23590;SDS011;11973;52.098;7.582;2023-02-15T06:35:22;38.20;;;28.92;;
23590;SDS011;11973;52.098;7.582;2023-02-15T06:37:48;41.42;;;30.23;;
23590;SDS011;11973;52.098;7.582;2023-02-15T06:40:14;42.13;;;29.95;;
23590;SDS011;11973;52.098;7.582;2023-02-15T06:42:41;40.65;;;29.75;;
23590;SDS011;11973;52.098;7.582;2023-02-15T06:45:07;42.30;;;30.63;;
23590;SDS011;11973;52.098;7.582;2023-02-15T06:47:34;39.35;;;29.13;;
23590;SDS011;11973;52.098;7.582;2023-02-15T06:49:59;42.63;;;30.20;;
23590;SDS011;11973;52.098;7.582;2023-02-15T06:52:25;42.15;;;29.70;;
23590;SDS011;11973;52.098;7.582;2023-02-15T06:54:51;44.15;;;29.45;;
23590;SDS011;11973;52.098;7.582;2023-02-15T06:57:16;43.45;;;32.15;;
23590;SDS011;11973;52.098;7.582;2023-02-15T06:59:42;47.45;;;32.80;;
23590;SDS011;11973;52.098;7.582;2023-02-15T07:02:08;48.97;;;33.78;;
23590;SDS011;11973;52.098;7.582;2023-02-15T07:04:36;49.97;;;34.28;;
23590;SDS011;11973;52.098;7.582;2023-02-15T07:07:02;51.80;;;34.80;;
23590;SDS011;11973;52.098;7.582;2023-02-15T07:09:28;48.55;;;34.25;;
23590;SDS011;11973;52.098;7.582;2023-02-15T07:11:53;49.55;;;33.60;;
23590;SDS011;11973;52.098;7.582;2023-02-15T07:14:38;48.28;;;34.08;;
23590;SDS011;11973;52.098;7.582;2023-02-15T07:17:05;45.42;;;32.72;;
23590;SDS011;11973;52.098;7.582;2023-02-15T07:19:31;47.00;;;34.13;;
23590;SDS011;11973;52.098;7.582;2023-02-15T07:21:57;49.80;;;33.97;;
23590;SDS011;11973;52.098;7.582;2023-02-15T07:24:22;46.50;;;32.00;;
23590;SDS011;11973;52.098;7.582;2023-02-15T07:26:48;45.75;;;32.90;;
23590;SDS011;11973;52.098;7.582;2023-02-15T07:29:14;46.80;;;32.42;;
23590;SDS011;11973;52.098;7.582;2023-02-15T07:31:40;47.60;;;33.25;;
23590;SDS011;11973;52.098;7.582;2023-02-15T07:34:08;44.05;;;32.88;;
23590;SDS011;11973;52.098;7.582;2023-02-15T07:36:33;46.63;;;32.90;;
23590;SDS011;11973;52.098;7.582;2023-02-15T07:38:59;45.22;;;32.63;;
23590;SDS011;11973;52.098;7.582;2023-02-15T07:41:25;50.78;;;33.92;;
23590;SDS011;11973;52.098;7.582;2023-02-15T07:43:50;48.83;;;34.75;;
23590;SDS011;11973;52.098;7.582;2023-02-15T07:46:16;45.47;;;33.58;;
23590;SDS011;11973;52.098;7.582;2023-02-15T07:48:43;55.33;;;37.60;;
23590;SDS011;11973;52.098;7.582;2023-02-15T07:51:09;55.83;;;37.60;;
23590;SDS011;11973;52.098;7.582;2023-02-15T07:53:38;58.47;;;39.42;;
23590;SDS011;11973;52.098;7.582;2023-02-15T07:56:05;66.15;;;41.35;;
23590;SDS011;11973;52.098;7.582;2023-02-15T07:58:34;62.42;;;41.03;;
23590;SDS011;11973;52.098;7.582;2023-02-15T08:01:22;63.88;;;42.65;;
23590;SDS011;11973;52.098;7.582;2023-02-15T08:03:54;65.55;;;43.58;;
23590;SDS011;11973;52.098;7.582;2023-02-15T08:06:21;66.22;;;44.50;;
23590;SDS011;11973;52.098;7.582;2023-02-15T08:08:48;69.55;;;44.53;;
23590;SDS011;11973;52.098;7.582;2023-02-15T08:11:15;72.00;;;46.42;;
23590;SDS011;11973;52.098;7.582;2023-02-15T08:16:46;69.32;;;46.42;;
23590;SDS011;11973;52.098;7.582;2023-02-15T08:19:20;73.63;;;47.13;;
23590;SDS011;11973;52.098;7.582;2023-02-15T08:21:50;75.82;;;46.58;;
23590;SDS011;11973;52.098;7.582;2023-02-15T08:24:22;74.00;;;46.55;;
23590;SDS011;11973;52.098;7.582;2023-02-15T08:26:49;76.00;;;46.75;;
23590;SDS011;11973;52.098;7.582;2023-02-15T08:29:17;71.47;;;45.40;;
23590;SDS011;11973;52.098;7.582;2023-02-15T08:31:45;86.13;;;47.67;;
23590;SDS011;11973;52.098;7.582;2023-02-15T08:34:13;82.40;;;47.08;;
23590;SDS011;11973;52.098;7.582;2023-02-15T08:36:41;85.65;;;46.22;;
23590;SDS011;11973;52.098;7.582;2023-02-15T08:39:07;67.80;;;43.70;;
23590;SDS011;11973;52.098;7.582;2023-02-15T08:41:36;71.07;;;46.30;;
23590;SDS011;11973;52.098;7.582;2023-02-15T08:44:04;73.13;;;46.08;;
23590;SDS011;11973;52.098;7.582;2023-02-15T08:46:32;70.82;;;45.65;;
23590;SDS011;11973;52.098;7.582;2023-02-15T08:49:00;75.57;;;46.65;;
23590;SDS011;11973;52.098;7.582;2023-02-15T08:51:27;73.20;;;46.03;;
23590;SDS011;11973;52.098;7.582;2023-02-15T08:53:55;71.47;;;46.40;;
23590;SDS011;11973;52.098;7.582;2023-02-15T08:56:27;74.25;;;48.22;;
23590;SDS011;11973;52.098;7.582;2023-02-15T08:58:54;71.25;;;46.13;;
23590;SDS011;11973;52.098;7.582;2023-02-15T09:01:21;71.28;;;48.08;;
23590;SDS011;11973;52.098;7.582;2023-02-15T09:03:50;81.05;;;49.67;;
23590;SDS011;11973;52.098;7.582;2023-02-15T09:06:20;70.25;;;46.92;;
23590;SDS011;11973;52.098;7.582;2023-02-15T09:08:47;80.35;;;50.08;;
23590;SDS011;11973;52.098;7.582;2023-02-15T09:11:17;71.65;;;46.45;;
23590;SDS011;11973;52.098;7.582;2023-02-15T09:13:49;77.20;;;48.67;;
23590;SDS011;11973;52.098;7.582;2023-02-15T09:16:18;78.40;;;47.90;;
23590;SDS011;11973;52.098;7.582;2023-02-15T09:18:45;69.50;;;45.55;;
23590;SDS011;11973;52.098;7.582;2023-02-15T09:21:12;67.63;;;45.20;;
23590;SDS011;11973;52.098;7.582;2023-02-15T09:23:40;73.60;;;46.88;;
23590;SDS011;11973;52.098;7.582;2023-02-15T09:26:08;69.82;;;45.28;;
23590;SDS011;11973;52.098;7.582;2023-02-15T09:28:41;74.95;;;46.17;;
23590;SDS011;11973;52.098;7.582;2023-02-15T09:31:12;65.82;;;44.10;;
23590;SDS011;11973;52.098;7.582;2023-02-15T09:33:40;61.90;;;42.28;;
23590;SDS011;11973;52.098;7.582;2023-02-15T09:36:14;59.85;;;42.05;;
23590;SDS011;11973;52.098;7.582;2023-02-15T09:39:01;67.78;;;41.90;;
23590;SDS011;11973;52.098;7.582;2023-02-15T09:47:01;56.92;;;38.42;;
23590;SDS011;11973;52.098;7.582;2023-02-15T09:49:35;54.03;;;37.70;;
23590;SDS011;11973;52.098;7.582;2023-02-15T09:54:39;54.38;;;36.17;;
23590;SDS011;11973;52.098;7.582;2023-02-15T09:57:36;47.67;;;34.63;;
23590;SDS011;11973;52.098;7.582;2023-02-15T10:00:28;48.85;;;34.70;;
23590;SDS011;11973;52.098;7.582;2023-02-15T10:05:53;44.33;;;33.58;;
23590;SDS011;11973;52.098;7.582;2023-02-15T10:11:23;48.00;;;33.50;;
23590;SDS011;11973;52.098;7.582;2023-02-15T10:16:58;44.88;;;32.00;;
23590;SDS011;11973;52.098;7.582;2023-02-15T10:22:27;39.85;;;30.23;;
23590;SDS011;11973;52.098;7.582;2023-02-15T10:25:20;37.75;;;29.38;;
23590;SDS011;11973;52.098;7.582;2023-02-15T10:28:09;40.67;;;30.27;;
23590;SDS011;11973;52.098;7.582;2023-02-15T10:30:46;39.20;;;28.95;;
23590;SDS011;11973;52.098;7.582;2023-02-15T10:41:42;36.20;;;27.17;;
23590;SDS011;11973;52.098;7.582;2023-02-15T10:49:51;40.08;;;28.92;;
23590;SDS011;11973;52.098;7.582;2023-02-15T11:00:44;36.65;;;28.23;;
23590;SDS011;11973;52.098;7.582;2023-02-15T11:05:46;37.65;;;27.52;;
23590;SDS011;11973;52.098;7.582;2023-02-15T11:08:25;37.55;;;28.10;;
23590;SDS011;11973;52.098;7.582;2023-02-15T11:11:01;39.90;;;29.00;;
23590;SDS011;11973;52.098;7.582;2023-02-15T11:13:43;36.97;;;27.50;;
23590;SDS011;11973;52.098;7.582;2023-02-15T11:16:17;40.67;;;27.95;;
23590;SDS011;11973;52.098;7.582;2023-02-15T11:19:01;36.17;;;27.98;;
23590;SDS011;11973;52.098;7.582;2023-02-15T11:21:40;35.95;;;27.42;;
23590;SDS011;11973;52.098;7.582;2023-02-15T11:24:09;39.75;;;28.35;;
23590;SDS011;11973;52.098;7.582;2023-02-15T11:26:42;39.13;;;28.15;;
23590;SDS011;11973;52.098;7.582;2023-02-15T11:29:36;37.08;;;27.63;;
23590;SDS011;11973;52.098;7.582;2023-02-15T11:37:19;34.63;;;26.77;;
23590;SDS011;11973;52.098;7.582;2023-02-15T11:39:50;37.97;;;27.38;;
23590;SDS011;11973;52.098;7.582;2023-02-15T11:42:20;35.22;;;26.73;;
23590;SDS011;11973;52.098;7.582;2023-02-15T11:47:14;35.97;;;26.92;;
23590;SDS011;11973;52.098;7.582;2023-02-15T11:49:40;37.45;;;26.98;;
23590;SDS011;11973;52.098;7.582;2023-02-15T11:52:06;39.83;;;27.60;;
23590;SDS011;11973;52.098;7.582;2023-02-15T11:54:39;36.40;;;26.58;;
23590;SDS011;11973;52.098;7.582;2023-02-15T11:57:15;37.30;;;26.42;;
23590;SDS011;11973;52.098;7.582;2023-02-15T11:59:48;36.17;;;26.20;;
23590;SDS011;11973;52.098;7.582;2023-02-15T12:02:21;39.10;;;27.17;;
23590;SDS011;11973;52.098;7.582;2023-02-15T12:04:52;42.65;;;27.23;;
23590;SDS011;11973;52.098;7.582;2023-02-15T12:10:19;36.42;;;26.17;;
23590;SDS011;11973;52.098;7.582;2023-02-15T12:13:07;34.60;;;25.90;;
23590;SDS011;11973;52.098;7.582;2023-02-15T12:15:33;37.63;;;26.70;;
23590;SDS011;11973;52.098;7.582;2023-02-15T12:18:01;39.65;;;27.17;;
23590;SDS011;11973;52.098;7.582;2023-02-15T12:20:33;34.17;;;26.75;;
23590;SDS011;11973;52.098;7.582;2023-02-15T12:23:06;43.30;;;28.23;;
23590;SDS011;11973;52.098;7.582;2023-02-15T12:25:41;36.83;;;26.20;;
23590;SDS011;11973;52.098;7.582;2023-02-15T12:28:24;36.47;;;26.02;;
23590;SDS011;11973;52.098;7.582;2023-02-15T12:30:51;35.63;;;25.88;;
23590;SDS011;11973;52.098;7.582;2023-02-15T12:33:30;39.63;;;27.70;;
23590;SDS011;11973;52.098;7.582;2023-02-15T12:36:14;38.15;;;26.48;;
23590;SDS011;11973;52.098;7.582;2023-02-15T12:41:32;43.17;;;25.35;;
23590;SDS011;11973;52.098;7.582;2023-02-15T12:44:18;34.47;;;24.77;;
23590;SDS011;11973;52.098;7.582;2023-02-15T12:49:23;38.30;;;25.15;;
23590;SDS011;11973;52.098;7.582;2023-02-15T12:51:50;36.42;;;25.17;;
23590;SDS011;11973;52.098;7.582;2023-02-15T12:56:49;38.85;;;24.65;;
23590;SDS011;11973;52.098;7.582;2023-02-15T12:59:16;36.05;;;24.13;;
23590;SDS011;11973;52.098;7.582;2023-02-15T13:01:45;35.08;;;23.10;;
23590;SDS011;11973;52.098;7.582;2023-02-15T13:04:22;39.17;;;25.00;;
23590;SDS011;11973;52.098;7.582;2023-02-15T13:06:51;36.35;;;24.02;;
23590;SDS011;11973;52.098;7.582;2023-02-15T13:11:48;36.30;;;22.45;;
23590;SDS011;11973;52.098;7.582;2023-02-15T13:14:18;32.75;;;22.48;;
23590;SDS011;11973;52.098;7.582;2023-02-15T13:16:47;36.67;;;21.83;;
23590;SDS011;11973;52.098;7.582;2023-02-15T13:19:17;33.50;;;21.75;;
23590;SDS011;11973;52.098;7.582;2023-02-15T13:21:48;33.97;;;21.55;;
23590;SDS011;11973;52.098;7.582;2023-02-15T13:24:24;29.42;;;21.20;;
23590;SDS011;11973;52.098;7.582;2023-02-15T13:26:57;29.60;;;20.85;;
23590;SDS011;11973;52.098;7.582;2023-02-15T13:29:24;30.00;;;21.50;;
23590;SDS011;11973;52.098;7.582;2023-02-15T13:32:04;29.80;;;21.20;;
23590;SDS011;11973;52.098;7.582;2023-02-15T13:34:46;30.15;;;20.25;;
23590;SDS011;11973;52.098;7.582;2023-02-15T13:37:23;28.95;;;21.05;;
23590;SDS011;11973;52.098;7.582;2023-02-15T13:40:02;30.33;;;21.23;;
23590;SDS011;11973;52.098;7.582;2023-02-15T13:51:24;34.17;;;21.83;;
23590;SDS011;11973;52.098;7.582;2023-02-15T14:05:45;28.98;;;20.30;;
23590;SDS011;11973;52.098;7.582;2023-02-15T14:08:46;30.40;;;20.52;;
23590;SDS011;11973;52.098;7.582;2023-02-15T14:16:51;26.30;;;19.15;;
23590;SDS011;11973;52.098;7.582;2023-02-15T14:25:21;29.55;;;20.05;;
23590;SDS011;11973;52.098;7.582;2023-02-15T14:31:16;26.98;;;20.63;;
23590;SDS011;11973;52.098;7.582;2023-02-15T14:33:53;29.48;;;20.83;;
23590;SDS011;11973;52.098;7.582;2023-02-15T14:36:21;30.23;;;20.60;;
23590;SDS011;11973;52.098;7.582;2023-02-15T14:41:23;29.52;;;20.10;;
23590;SDS011;11973;52.098;7.582;2023-02-15T14:46:53;27.75;;;20.38;;
23590;SDS011;11973;52.098;7.582;2023-02-15T14:49:33;26.63;;;19.75;;
23590;SDS011;11973;52.098;7.582;2023-02-15T14:52:03;26.60;;;19.42;;
23590;SDS011;11973;52.098;7.582;2023-02-15T14:59:26;31.08;;;20.50;;
23590;SDS011;11973;52.098;7.582;2023-02-15T15:08:21;30.95;;;19.73;;
23590;SDS011;11973;52.098;7.582;2023-02-15T15:10:51;29.90;;;20.15;;
23590;SDS011;11973;52.098;7.582;2023-02-15T15:16:45;29.17;;;19.75;;
23590;SDS011;11973;52.098;7.582;2023-02-15T15:19:00;31.83;;;20.45;;
23590;SDS011;11973;52.098;7.582;2023-02-15T15:32:49;31.23;;;20.27;;
23590;SDS011;11973;52.098;7.582;2023-02-15T15:43:30;28.75;;;20.30;;
23590;SDS011;11973;52.098;7.582;2023-02-15T15:48:59;30.17;;;21.25;;
23590;SDS011;11973;52.098;7.582;2023-02-15T15:51:53;29.08;;;20.40;;
23590;SDS011;11973;52.098;7.582;2023-02-15T15:54:23;29.00;;;20.98;;
23590;SDS011;11973;52.098;7.582;2023-02-15T15:56:52;31.23;;;21.33;;
23590;SDS011;11973;52.098;7.582;2023-02-15T15:59:21;27.73;;;20.75;;
23590;SDS011;11973;52.098;7.582;2023-02-15T16:01:50;30.00;;;21.48;;
23590;SDS011;11973;52.098;7.582;2023-02-15T16:04:25;32.30;;;21.83;;
23590;SDS011;11973;52.098;7.582;2023-02-15T16:06:55;32.97;;;22.95;;
23590;SDS011;11973;52.098;7.582;2023-02-15T16:11:50;36.45;;;22.65;;
23590;SDS011;11973;52.098;7.582;2023-02-15T16:17:00;37.70;;;23.23;;
23590;SDS011;11973;52.098;7.582;2023-02-15T16:19:30;32.35;;;22.25;;
23590;SDS011;11973;52.098;7.582;2023-02-15T16:22:00;31.63;;;22.23;;
23590;SDS011;11973;52.098;7.582;2023-02-15T16:27:34;33.85;;;22.27;;
23590;SDS011;11973;52.098;7.582;2023-02-15T16:33:07;31.40;;;21.52;;
23590;SDS011;11973;52.098;7.582;2023-02-15T16:35:33;35.90;;;23.13;;
23590;SDS011;11973;52.098;7.582;2023-02-15T16:38:00;38.10;;;23.17;;
23590;SDS011;11973;52.098;7.582;2023-02-15T16:40:28;36.97;;;24.00;;
23590;SDS011;11973;52.098;7.582;2023-02-15T16:43:19;36.97;;;23.08;;
23590;SDS011;11973;52.098;7.582;2023-02-15T16:45:50;34.90;;;24.05;;
23590;SDS011;11973;52.098;7.582;2023-02-15T16:48:18;34.17;;;23.98;;
23590;SDS011;11973;52.098;7.582;2023-02-15T16:50:54;36.58;;;23.67;;
23590;SDS011;11973;52.098;7.582;2023-02-15T16:53:24;42.60;;;24.70;;
23590;SDS011;11973;52.098;7.582;2023-02-15T16:55:55;41.05;;;24.88;;
23590;SDS011;11973;52.098;7.582;2023-02-15T16:58:27;38.15;;;24.40;;
23590;SDS011;11973;52.098;7.582;2023-02-15T17:01:06;42.17;;;24.77;;
23590;SDS011;11973;52.098;7.582;2023-02-15T17:03:35;35.58;;;24.27;;
23590;SDS011;11973;52.098;7.582;2023-02-15T17:06:01;39.33;;;26.13;;
23590;SDS011;11973;52.098;7.582;2023-02-15T17:08:29;43.95;;;25.85;;
23590;SDS011;11973;52.098;7.582;2023-02-15T17:16:29;37.75;;;25.17;;
23590;SDS011;11973;52.098;7.582;2023-02-15T17:18:59;39.80;;;25.48;;
23590;SDS011;11973;52.098;7.582;2023-02-15T17:21:38;36.83;;;25.52;;
23590;SDS011;11973;52.098;7.582;2023-02-15T17:24:13;36.30;;;25.67;;
23590;SDS011;11973;52.098;7.582;2023-02-15T17:27:14;39.17;;;25.60;;
23590;SDS011;11973;52.098;7.582;2023-02-15T17:29:48;35.97;;;24.42;;
23590;SDS011;11973;52.098;7.582;2023-02-15T17:32:20;40.03;;;25.38;;
23590;SDS011;11973;52.098;7.582;2023-02-15T17:35:08;41.40;;;26.88;;
23590;SDS011;11973;52.098;7.582;2023-02-15T17:37:43;38.38;;;25.80;;
23590;SDS011;11973;52.098;7.582;2023-02-15T17:40:46;38.05;;;24.63;;
23590;SDS011;11973;52.098;7.582;2023-02-15T17:43:05;42.53;;;25.77;;
23590;SDS011;11973;52.098;7.582;2023-02-15T17:45:35;41.63;;;25.13;;
23590;SDS011;11973;52.098;7.582;2023-02-15T17:48:05;36.72;;;24.77;;
23590;SDS011;11973;52.098;7.582;2023-02-15T17:50:31;34.47;;;23.35;;
23590;SDS011;11973;52.098;7.582;2023-02-15T17:52:58;38.13;;;24.77;;
23590;SDS011;11973;52.098;7.582;2023-02-15T17:55:26;33.13;;;22.45;;
23590;SDS011;11973;52.098;7.582;2023-02-15T17:58:15;38.10;;;24.90;;
23590;SDS011;11973;52.098;7.582;2023-02-15T18:00:47;35.63;;;23.92;;
23590;SDS011;11973;52.098;7.582;2023-02-15T18:03:41;37.60;;;25.63;;
23590;SDS011;11973;52.098;7.582;2023-02-15T18:06:34;40.00;;;25.13;;
23590;SDS011;11973;52.098;7.582;2023-02-15T18:09:22;39.20;;;25.77;;
23590;SDS011;11973;52.098;7.582;2023-02-15T18:14:44;39.33;;;24.70;;
23590;SDS011;11973;52.098;7.582;2023-02-15T18:17:13;37.17;;;24.00;;
23590;SDS011;11973;52.098;7.582;2023-02-15T18:19:40;37.38;;;25.15;;
23590;SDS011;11973;52.098;7.582;2023-02-15T18:22:12;36.53;;;24.50;;
23590;SDS011;11973;52.098;7.582;2023-02-15T18:24:40;35.08;;;23.85;;
23590;SDS011;11973;52.098;7.582;2023-02-15T18:27:05;36.90;;;25.15;;
23590;SDS011;11973;52.098;7.582;2023-02-15T18:29:31;35.40;;;24.08;;
23590;SDS011;11973;52.098;7.582;2023-02-15T18:31:57;42.40;;;24.02;;
23590;SDS011;11973;52.098;7.582;2023-02-15T18:34:32;37.08;;;24.27;;
23590;SDS011;11973;52.098;7.582;2023-02-15T18:37:02;40.28;;;25.48;;
23590;SDS011;11973;52.098;7.582;2023-02-15T18:39:37;34.80;;;23.17;;
23590;SDS011;11973;52.098;7.582;2023-02-15T18:42:18;32.03;;;22.83;;
23590;SDS011;11973;52.098;7.582;2023-02-15T18:44:46;34.75;;;23.85;;
23590;SDS011;11973;52.098;7.582;2023-02-15T18:47:12;36.20;;;23.60;;
23590;SDS011;11973;52.098;7.582;2023-02-15T18:49:37;35.75;;;24.17;;
23590;SDS011;11973;52.098;7.582;2023-02-15T18:52:03;33.72;;;23.08;;
23590;SDS011;11973;52.098;7.582;2023-02-15T18:54:29;33.90;;;23.20;;
23590;SDS011;11973;52.098;7.582;2023-02-15T18:56:56;33.95;;;23.33;;
23590;SDS011;11973;52.098;7.582;2023-02-15T18:59:25;31.52;;;21.70;;
23590;SDS011;11973;52.098;7.582;2023-02-15T19:01:52;35.20;;;22.98;;
23590;SDS011;11973;52.098;7.582;2023-02-15T19:04:18;34.75;;;23.42;;
23590;SDS011;11973;52.098;7.582;2023-02-15T19:06:47;37.45;;;24.13;;
23590;SDS011;11973;52.098;7.582;2023-02-15T19:09:15;33.88;;;22.48;;
23590;SDS011;11973;52.098;7.582;2023-02-15T19:11:47;41.42;;;24.45;;
23590;SDS011;11973;52.098;7.582;2023-02-15T19:14:28;34.55;;;23.15;;
23590;SDS011;11973;52.098;7.582;2023-02-15T19:16:55;33.15;;;22.48;;
23590;SDS011;11973;52.098;7.582;2023-02-15T19:19:21;37.80;;;24.25;;
23590;SDS011;11973;52.098;7.582;2023-02-15T19:21:48;38.63;;;25.35;;
23590;SDS011;11973;52.098;7.582;2023-02-15T19:24:18;41.45;;;25.95;;
23590;SDS011;11973;52.098;7.582;2023-02-15T19:26:49;42.47;;;26.42;;
23590;SDS011;11973;52.098;7.582;2023-02-15T19:29:19;40.10;;;24.42;;
23590;SDS011;11973;52.098;7.582;2023-02-15T19:31:50;35.90;;;23.80;;
23590;SDS011;11973;52.098;7.582;2023-02-15T19:34:16;34.40;;;23.85;;
23590;SDS011;11973;52.098;7.582;2023-02-15T19:36:42;36.55;;;23.95;;
23590;SDS011;11973;52.098;7.582;2023-02-15T19:39:21;29.67;;;21.90;;
23590;SDS011;11973;52.098;7.582;2023-02-15T19:41:49;32.33;;;22.05;;
23590;SDS011;11973;52.098;7.582;2023-02-15T19:44:15;31.40;;;21.60;;
23590;SDS011;11973;52.098;7.582;2023-02-15T19:46:42;29.55;;;21.30;;
23590;SDS011;11973;52.098;7.582;2023-02-15T19:49:08;30.17;;;21.27;;
23590;SDS011;11973;52.098;7.582;2023-02-15T19:51:34;31.30;;;21.08;;
23590;SDS011;11973;52.098;7.582;2023-02-15T19:54:00;34.35;;;22.45;;
23590;SDS011;11973;52.098;7.582;2023-02-15T19:56:26;32.33;;;22.38;;
23590;SDS011;11973;52.098;7.582;2023-02-15T19:58:52;32.80;;;22.50;;
23590;SDS011;11973;52.098;7.582;2023-02-15T20:01:22;37.20;;;22.67;;
23590;SDS011;11973;52.098;7.582;2023-02-15T20:03:49;29.38;;;21.30;;
23590;SDS011;11973;52.098;7.582;2023-02-15T20:06:16;32.60;;;21.60;;
23590;SDS011;11973;52.098;7.582;2023-02-15T20:08:42;29.45;;;19.92;;
23590;SDS011;11973;52.098;7.582;2023-02-15T20:11:09;33.38;;;21.60;;
23590;SDS011;11973;52.098;7.582;2023-02-15T20:13:37;29.52;;;20.52;;
23590;SDS011;11973;52.098;7.582;2023-02-15T20:16:03;30.23;;;20.70;;
23590;SDS011;11973;52.098;7.582;2023-02-15T20:18:32;30.23;;;20.50;;
23590;SDS011;11973;52.098;7.582;2023-02-15T20:20:58;32.17;;;20.48;;
23590;SDS011;11973;52.098;7.582;2023-02-15T20:25:51;35.75;;;19.77;;
23590;SDS011;11973;52.098;7.582;2023-02-15T20:28:20;28.80;;;19.67;;
23590;SDS011;11973;52.098;7.582;2023-02-15T20:30:47;26.58;;;19.33;;
23590;SDS011;11973;52.098;7.582;2023-02-15T20:33:13;27.35;;;19.17;;
23590;SDS011;11973;52.098;7.582;2023-02-15T20:35:39;30.52;;;19.13;;
23590;SDS011;11973;52.098;7.582;2023-02-15T20:38:11;26.63;;;18.70;;
23590;SDS011;11973;52.098;7.582;2023-02-15T20:40:51;26.60;;;18.90;;
23590;SDS011;11973;52.098;7.582;2023-02-15T20:43:35;28.67;;;18.25;;
23590;SDS011;11973;52.098;7.582;2023-02-15T20:46:01;21.85;;;17.30;;
23590;SDS011;11973;52.098;7.582;2023-02-15T20:48:27;27.55;;;18.38;;
23590;SDS011;11973;52.098;7.582;2023-02-15T20:50:53;27.67;;;18.65;;
23590;SDS011;11973;52.098;7.582;2023-02-15T20:53:19;25.27;;;17.95;;
23590;SDS011;11973;52.098;7.582;2023-02-15T20:55:46;23.67;;;17.30;;
23590;SDS011;11973;52.098;7.582;2023-02-15T20:58:19;23.70;;;18.15;;
23590;SDS011;11973;52.098;7.582;2023-02-15T21:00:47;25.67;;;19.10;;
23590;SDS011;11973;52.098;7.582;2023-02-15T21:03:13;24.90;;;18.70;;
23590;SDS011;11973;52.098;7.582;2023-02-15T21:05:40;22.92;;;16.73;;
23590;SDS011;11973;52.098;7.582;2023-02-15T21:08:13;22.85;;;16.70;;
23590;SDS011;11973;52.098;7.582;2023-02-15T21:10:43;22.92;;;15.82;;
23590;SDS011;11973;52.098;7.582;2023-02-15T21:13:30;22.55;;;15.98;;
23590;SDS011;11973;52.098;7.582;2023-02-15T21:15:58;23.42;;;17.20;;
23590;SDS011;11973;52.098;7.582;2023-02-15T21:18:28;23.23;;;16.67;;
23590;SDS011;11973;52.098;7.582;2023-02-15T21:20:57;22.55;;;17.02;;
23590;SDS011;11973;52.098;7.582;2023-02-15T21:23:42;21.75;;;16.83;;
23590;SDS011;11973;52.098;7.582;2023-02-15T21:26:16;20.35;;;16.60;;
23590;SDS011;11973;52.098;7.582;2023-02-15T21:28:46;22.92;;;17.85;;
23590;SDS011;11973;52.098;7.582;2023-02-15T21:31:30;26.83;;;17.90;;
23590;SDS011;11973;52.098;7.582;2023-02-15T21:33:56;22.73;;;16.98;;
23590;SDS011;11973;52.098;7.582;2023-02-15T21:36:22;24.83;;;17.52;;
23590;SDS011;11973;52.098;7.582;2023-02-15T21:38:49;24.80;;;18.15;;
23590;SDS011;11973;52.098;7.582;2023-02-15T21:41:16;20.60;;;17.33;;
23590;SDS011;11973;52.098;7.582;2023-02-15T21:44:02;25.55;;;17.77;;
23590;SDS011;11973;52.098;7.582;2023-02-15T21:46:57;23.27;;;17.25;;
23590;SDS011;11973;52.098;7.582;2023-02-15T21:49:41;23.60;;;18.23;;
23590;SDS011;11973;52.098;7.582;2023-02-15T21:52:08;24.85;;;17.83;;
23590;SDS011;11973;52.098;7.582;2023-02-15T21:54:37;22.00;;;17.02;;
23590;SDS011;11973;52.098;7.582;2023-02-15T21:57:04;25.85;;;19.17;;
23590;SDS011;11973;52.098;7.582;2023-02-15T21:59:30;26.85;;;18.55;;
23590;SDS011;11973;52.098;7.582;2023-02-15T22:01:56;25.98;;;18.20;;
23590;SDS011;11973;52.098;7.582;2023-02-15T22:04:26;25.08;;;19.10;;
23590;SDS011;11973;52.098;7.582;2023-02-15T22:06:53;24.27;;;18.88;;
23590;SDS011;11973;52.098;7.582;2023-02-15T22:09:22;26.55;;;19.10;;
23590;SDS011;11973;52.098;7.582;2023-02-15T22:11:49;26.38;;;19.13;;
23590;SDS011;11973;52.098;7.582;2023-02-15T22:14:37;23.38;;;19.38;;
23590;SDS011;11973;52.098;7.582;2023-02-15T22:17:24;23.40;;;18.25;;